Bentley, Kansas
Current Conditions -  °F | °C
As of 11:31 AM on Sunday 23 Nov 2014 (Local Time) from KICT Reporting Station
Overcast Overcast  
Wind Chill: 55°   Ceiling: 1700
Heat Index: 55°   Visibility: 9mi
Dew Point: 51°   Wind: 9mph
Humidity: 86%   Direction: 10°N
Pressure: 29.41"   Gusts: NA
Location:  37.89°N, 97.52°W
Report Text: KICT 231731Z 01008KT 9SM SCT011 BKN017 OVC036 13/11 A2941 RMK AO2 RAE14 P0000 T01280106
Loading
Personal Weather Stations






























Interactive Weather Map New forecast layout! Learn more

10-Day Weather Forecast

Advertisements
Track Severe Weather on mobile